createdAt,value
2019-04-26T00:00:47.092Z,3.67
2019-04-26T00:03:18.483Z,3.10
2019-04-26T00:05:47.053Z,2.97
2019-04-26T00:08:15.881Z,3.10
2019-04-26T00:10:49.229Z,3.40
2019-04-26T00:13:22.512Z,3.70
2019-04-26T00:15:55.569Z,3.50
2019-04-26T00:18:24.248Z,3.53
2019-04-26T00:20:53.374Z,3.40
2019-04-26T00:23:22.591Z,3.53
2019-04-26T00:25:51.522Z,2.87
2019-04-26T00:28:21.115Z,3.20
2019-04-26T00:30:49.838Z,3.53
2019-04-26T00:33:19.348Z,3.97
2019-04-26T00:35:48.283Z,3.50
2019-04-26T00:38:16.890Z,3.70
2019-04-26T00:40:45.732Z,3.93
2019-04-26T00:43:15.038Z,3.70
2019-04-26T00:45:44.291Z,3.27
2019-04-26T00:48:15.334Z,3.60
2019-04-26T00:50:45.338Z,3.83
2019-04-26T00:53:16.028Z,4.20
2019-04-26T00:55:45.262Z,3.43
2019-04-26T00:58:16.119Z,3.60
2019-04-26T01:00:45.134Z,4.10
2019-04-26T01:03:15.215Z,3.70
2019-04-26T01:05:43.934Z,4.03
2019-04-26T01:08:12.482Z,4.10
2019-04-26T01:10:40.983Z,3.97
2019-04-26T01:13:09.560Z,3.80
2019-04-26T01:15:38.442Z,3.83
2019-04-26T01:18:06.929Z,3.60
2019-04-26T01:20:37.346Z,3.93
2019-04-26T01:23:08.669Z,3.93
2019-04-26T01:25:52.554Z,4.00
2019-04-26T01:28:33.089Z,4.40
2019-04-26T01:31:04.869Z,4.20
2019-04-26T01:33:36.457Z,3.80
2019-04-26T01:36:12.945Z,4.10
2019-04-26T01:38:35.727Z,4.07
2019-04-26T01:41:07.157Z,4.20
2019-04-26T01:43:54.877Z,4.17
2019-04-26T01:46:29.021Z,4.23
2019-04-26T01:49:09.320Z,3.60
2019-04-26T01:51:46.881Z,3.70
2019-04-26T01:54:18.255Z,4.20
2019-04-26T01:56:49.175Z,4.50
2019-04-26T01:59:18.829Z,4.63
2019-04-26T02:01:55.280Z,3.93
2019-04-26T02:04:25.795Z,5.10
2019-04-26T02:06:54.305Z,5.63
2019-04-26T02:09:24.302Z,4.70
2019-04-26T02:11:52.905Z,4.50
2019-04-26T02:14:22.838Z,5.03
2019-04-26T02:16:52.540Z,4.43
2019-04-26T02:19:21.821Z,4.27
2019-04-26T02:21:55.042Z,4.23
2019-04-26T02:24:26.439Z,5.17
2019-04-26T02:26:55.974Z,4.40
2019-04-26T02:29:28.492Z,4.90
2019-04-26T02:32:03.069Z,4.27
2019-04-26T02:34:37.163Z,4.37
2019-04-26T02:37:07.221Z,4.63
2019-04-26T02:39:38.891Z,5.20
2019-04-26T02:42:20.204Z,6.20
2019-04-26T02:44:58.986Z,5.37
2019-04-26T02:47:39.075Z,4.93
2019-04-26T02:50:12.533Z,4.97
2019-04-26T02:52:49.971Z,5.00
2019-04-26T02:55:42.120Z,5.23
2019-04-26T02:58:07.357Z,4.83
2019-04-26T03:00:37.310Z,5.40
2019-04-26T03:03:07.988Z,5.87
2019-04-26T03:05:39.862Z,5.43
2019-04-26T03:08:11.779Z,5.50
2019-04-26T03:10:43.736Z,6.03
2019-04-26T03:13:17.007Z,4.93
2019-04-26T03:16:05.506Z,5.43
2019-04-26T03:18:39.523Z,4.77
2019-04-26T03:21:14.962Z,5.90
2019-04-26T03:24:04.719Z,5.67
2019-04-26T03:26:55.700Z,5.90
2019-04-26T03:29:41.348Z,5.37
2019-04-26T03:32:16.936Z,6.07
2019-04-26T03:35:21.142Z,6.07
2019-04-26T03:38:00.187Z,5.70
2019-04-26T03:40:38.297Z,5.23
2019-04-26T03:43:18.799Z,5.27
2019-04-26T03:46:10.507Z,5.70
2019-04-26T03:48:54.219Z,5.07
2019-04-26T03:51:41.158Z,5.47
2019-04-26T03:54:25.522Z,5.70
2019-04-26T03:57:07.366Z,5.77
2019-04-26T03:59:52.379Z,5.73
2019-04-26T04:02:29.030Z,5.67
2019-04-26T04:05:10.619Z,6.77
2019-04-26T04:07:47.213Z,6.43
2019-04-26T04:10:14.904Z,6.17
2019-04-26T04:12:54.839Z,6.17
2019-04-26T04:15:32.601Z,6.57
2019-04-26T04:18:06.064Z,6.60
2019-04-26T04:21:01.027Z,6.10
2019-04-26T04:23:39.821Z,6.37
2019-04-26T04:26:10.660Z,6.90
2019-04-26T04:29:00.467Z,6.23
2019-04-26T04:31:45.742Z,6.53
2019-04-26T04:34:41.570Z,7.70
2019-04-26T04:37:11.806Z,6.73
2019-04-26T04:40:11.976Z,7.70
2019-04-26T04:42:57.261Z,7.57
2019-04-26T04:46:03.480Z,7.77
2019-04-26T04:48:56.953Z,7.90
2019-04-26T04:51:31.362Z,8.00
2019-04-26T04:54:08.783Z,7.73
2019-04-26T04:57:01.541Z,7.33
2019-04-26T04:59:46.054Z,7.70
2019-04-26T05:02:44.837Z,7.53
2019-04-26T05:05:49.832Z,8.07
2019-04-26T05:08:39.561Z,7.60
2019-04-26T05:11:16.885Z,9.63
2019-04-26T05:13:48.615Z,8.13
2019-04-26T05:16:54.670Z,9.13
2019-04-26T05:19:48.540Z,9.00
2019-04-26T05:22:35.164Z,8.00
2019-04-26T05:26:00.402Z,9.33
2019-04-26T05:29:08.530Z,8.93
2019-04-26T05:31:52.787Z,9.30
2019-04-26T05:34:46.212Z,10.37
2019-04-26T05:37:39.953Z,9.90
2019-04-26T05:40:17.374Z,10.23
2019-04-26T05:43:18.136Z,9.93
2019-04-26T05:46:11.898Z,9.47
2019-04-26T05:49:00.098Z,7.77
2019-04-26T05:52:02.273Z,9.83
2019-04-26T05:55:06.187Z,8.27
2019-04-26T05:58:06.465Z,9.33
2019-04-26T06:00:58.025Z,9.17
2019-04-26T06:04:02.665Z,8.23
2019-04-26T06:06:41.743Z,8.07
2019-04-26T06:09:29.605Z,7.57
2019-04-26T06:12:12.497Z,8.13
2019-04-26T06:15:22.033Z,7.80
2019-04-26T06:18:23.804Z,8.07
2019-04-26T06:21:04.428Z,7.37
2019-04-26T06:23:53.827Z,7.10
2019-04-26T06:26:45.379Z,6.93
2019-04-26T06:29:35.241Z,6.33
2019-04-26T06:32:21.790Z,6.53
2019-04-26T06:34:59.308Z,6.27
2019-04-26T06:37:38.333Z,6.13
2019-04-26T06:40:15.986Z,6.33
2019-04-26T06:42:56.324Z,5.83
2019-04-26T06:45:29.864Z,6.00
2019-04-26T06:48:18.257Z,6.03
2019-04-26T06:50:49.823Z,5.23
2019-04-26T06:53:44.093Z,5.00
2019-04-26T06:56:19.992Z,5.57
2019-04-26T06:59:17.057Z,5.60
2019-04-26T07:02:04.297Z,5.37
2019-04-26T07:05:03.088Z,4.70
2019-04-26T07:07:34.741Z,5.53
2019-04-26T07:10:12.170Z,5.47
2019-04-26T07:12:48.150Z,5.20
2019-04-26T07:15:42.770Z,4.53
2019-04-26T07:18:14.395Z,4.63
2019-04-26T07:20:54.023Z,4.50
2019-04-26T07:23:27.268Z,4.53
2019-04-26T07:26:03.823Z,4.07
2019-04-26T07:29:03.033Z,4.78
2019-04-26T07:31:46.864Z,4.60
2019-04-26T07:34:31.268Z,4.93
2019-04-26T07:37:08.891Z,4.50
2019-04-26T07:39:53.989Z,4.63
2019-04-26T07:42:48.704Z,5.00
2019-04-26T07:45:40.128Z,4.47
2019-04-26T07:48:26.765Z,4.23
2019-04-26T07:51:16.790Z,4.77
2019-04-26T07:54:05.082Z,3.67
2019-04-26T07:56:39.858Z,4.27
2019-04-26T07:59:44.933Z,3.80
2019-04-26T08:02:21.362Z,4.10
2019-04-26T08:04:55.705Z,4.47
2019-04-26T08:07:27.301Z,4.07
2019-04-26T08:09:59.976Z,4.10
2019-04-26T08:12:32.143Z,3.50
2019-04-26T08:15:24.997Z,4.73
2019-04-26T08:18:00.907Z,4.47
2019-04-26T08:20:42.583Z,4.90
2019-04-26T08:23:35.032Z,3.73
2019-04-26T08:25:46.363Z,4.30
2019-04-26T08:28:18.151Z,4.17
2019-04-26T08:30:50.469Z,4.57
2019-04-26T08:33:23.730Z,4.40
2019-04-26T08:35:54.590Z,4.23
2019-04-26T08:38:24.578Z,4.27
2019-04-26T08:40:53.608Z,4.23
2019-04-26T08:43:39.984Z,4.00
2019-04-26T08:46:13.111Z,4.60
2019-04-26T08:48:45.350Z,4.30
2019-04-26T08:51:20.528Z,4.40
2019-04-26T08:53:50.220Z,5.10
2019-04-26T08:56:27.611Z,4.70
2019-04-26T08:58:59.269Z,4.70
2019-04-26T09:01:31.838Z,4.80
2019-04-26T09:04:07.074Z,4.65
2019-04-26T09:06:39.797Z,4.17
2019-04-26T09:09:14.345Z,4.23
2019-04-26T09:11:44.296Z,4.62
2019-04-26T09:14:13.390Z,4.50
2019-04-26T09:16:50.123Z,4.67
2019-04-26T09:19:12.241Z,4.67
2019-04-26T09:21:42.493Z,5.10
2019-04-26T09:24:35.044Z,4.13
2019-04-26T09:27:11.218Z,4.27
2019-04-26T09:29:41.428Z,4.47
2019-04-26T09:32:11.869Z,4.30
2019-04-26T09:34:41.595Z,4.70
2019-04-26T09:37:11.545Z,4.03
2019-04-26T09:39:41.600Z,3.90
2019-04-26T09:42:21.312Z,4.27
2019-04-26T09:44:51.876Z,3.77
2019-04-26T09:47:31.322Z,3.70
2019-04-26T09:50:17.196Z,3.73
2019-04-26T09:52:53.183Z,3.43
2019-04-26T09:55:34.525Z,3.80
2019-04-26T09:57:53.530Z,3.83
2019-04-26T10:00:24.381Z,3.80
2019-04-26T10:02:53.422Z,3.50
2019-04-26T10:05:23.785Z,3.60
2019-04-26T10:07:52.436Z,3.17
2019-04-26T10:10:23.250Z,3.13
2019-04-26T10:12:59.521Z,3.20
2019-04-26T10:15:29.705Z,3.07
2019-04-26T10:17:59.465Z,3.47
2019-04-26T10:20:28.446Z,3.27
2019-04-26T10:22:56.992Z,3.40
2019-04-26T10:25:25.567Z,3.23
2019-04-26T10:27:54.177Z,3.10
2019-04-26T10:30:22.840Z,3.20
2019-04-26T10:32:51.519Z,3.50
2019-04-26T10:35:21.669Z,2.70
2019-04-26T10:37:52.585Z,3.50
2019-04-26T10:40:21.141Z,2.57
2019-04-26T10:42:49.748Z,2.70
2019-04-26T10:45:18.448Z,3.17
2019-04-26T10:47:47.066Z,2.87
2019-04-26T10:50:15.832Z,3.10
2019-04-26T10:52:54.414Z,2.80
2019-04-26T10:55:42.254Z,2.80
2019-04-26T10:58:15.796Z,2.60
2019-04-26T11:00:48.459Z,2.50
2019-04-26T11:03:16.597Z,2.87
2019-04-26T11:05:45.437Z,2.50
2019-04-26T11:08:14.049Z,2.80
2019-04-26T11:10:48.714Z,2.70
2019-04-26T11:13:12.837Z,2.20
2019-04-26T11:15:41.467Z,2.30
2019-04-26T11:18:10.413Z,2.90
2019-04-26T11:20:41.349Z,2.30
2019-04-26T11:23:11.840Z,2.40
2019-04-26T11:25:39.465Z,2.10
2019-04-26T11:28:08.319Z,2.17
2019-04-26T11:30:36.977Z,2.27
2019-04-26T11:33:07.242Z,1.90
2019-04-26T11:35:36.146Z,2.50
2019-04-26T11:38:05.108Z,2.30
2019-04-26T11:40:33.745Z,2.27
2019-04-26T11:43:02.298Z,2.10
2019-04-26T11:45:30.885Z,2.23
2019-04-26T11:47:59.441Z,2.37
2019-04-26T11:50:28.167Z,2.67
2019-04-26T11:52:56.825Z,2.17
2019-04-26T11:55:29.608Z,2.30
2019-04-26T11:57:55.670Z,2.10
2019-04-26T12:00:28.479Z,2.27
2019-04-26T12:02:57.189Z,2.10
2019-04-26T12:05:29.891Z,2.17
2019-04-26T12:08:06.203Z,2.20
2019-04-26T12:10:34.812Z,2.20
2019-04-26T12:13:06.031Z,2.10
2019-04-26T12:15:33.702Z,2.00
2019-04-26T12:18:05.719Z,2.23
2019-04-26T12:20:33.229Z,2.40
2019-04-26T12:23:01.879Z,2.20
2019-04-26T12:25:31.144Z,2.60
2019-04-26T12:29:53.557Z,2.60
2019-04-26T12:30:30.071Z,2.30
2019-04-26T12:32:58.639Z,2.33
2019-04-26T12:35:29.881Z,2.47
2019-04-26T12:37:57.437Z,2.50
2019-04-26T12:40:26.054Z,2.30
2019-04-26T12:42:54.629Z,2.37
2019-04-26T12:45:24.832Z,2.20
2019-04-26T12:47:57.494Z,2.70
2019-04-26T12:50:29.489Z,2.47
2019-04-26T12:52:57.561Z,2.40
2019-04-26T12:55:26.393Z,2.47
2019-04-26T12:57:54.983Z,2.80
2019-04-26T13:00:25.226Z,2.77
2019-04-26T13:02:54.209Z,3.40
2019-04-26T13:05:24.317Z,3.20
2019-04-26T13:07:53.985Z,2.60
2019-04-26T13:10:31.300Z,2.50
2019-04-26T13:13:02.108Z,2.33
2019-04-26T13:15:59.193Z,2.20
2019-04-26T13:18:27.764Z,2.10
2019-04-26T13:20:58.476Z,2.40
2019-04-26T13:23:30.037Z,2.00
2019-04-26T13:25:59.709Z,1.63
2019-04-26T13:28:27.325Z,1.80
2019-04-26T13:30:55.887Z,1.90
2019-04-26T13:33:27.401Z,2.27
2019-04-26T13:36:02.663Z,2.08
2019-04-26T13:38:24.917Z,1.80
2019-04-26T13:40:53.615Z,1.83
2019-04-26T13:43:22.865Z,1.70
2019-04-26T13:46:09.241Z,1.60
2019-04-26T13:48:55.830Z,1.70
2019-04-26T13:51:28.930Z,1.80
2019-04-26T13:53:57.487Z,1.83
2019-04-26T13:56:26.135Z,2.00
2019-04-26T13:58:58.302Z,1.87
2019-04-26T14:01:24.973Z,1.83
2019-04-26T14:03:54.123Z,1.90
2019-04-26T14:06:22.697Z,1.90
2019-04-26T14:08:53.951Z,1.77
2019-04-26T14:11:28.057Z,2.07
2019-04-26T14:13:55.496Z,2.10
2019-04-26T14:16:22.839Z,1.83
2019-04-26T14:18:51.405Z,2.23
2019-04-26T14:21:19.943Z,2.00
2019-04-26T14:23:51.138Z,2.00
2019-04-26T14:26:24.405Z,1.80
2019-04-26T14:28:54.223Z,2.00
2019-04-26T14:31:23.226Z,2.10
2019-04-26T14:33:51.779Z,1.97
2019-04-26T14:36:22.653Z,2.07
2019-04-26T14:39:05.024Z,2.20
2019-04-26T14:41:23.848Z,2.27
2019-04-26T14:43:56.250Z,2.00
2019-04-26T14:46:23.046Z,1.97
2019-04-26T14:49:01.478Z,1.93
2019-04-26T14:51:21.973Z,2.20
2019-04-26T14:53:50.950Z,1.93
2019-04-26T14:56:19.490Z,1.90
2019-04-26T14:58:48.526Z,1.70
2019-04-26T15:01:35.345Z,2.03
2019-04-26T15:04:23.239Z,2.27
2019-04-26T15:06:57.916Z,2.40
2019-04-26T15:09:29.795Z,2.73
2019-04-26T15:11:58.627Z,1.70
2019-04-26T15:14:24.651Z,1.93
2019-04-26T15:16:53.236Z,2.00
2019-04-26T15:19:22.557Z,2.08
2019-04-26T15:21:52.355Z,2.10
2019-04-26T15:24:22.578Z,1.73
2019-04-26T15:26:51.312Z,2.00
2019-04-26T15:29:21.333Z,1.57
2019-04-26T15:31:53.677Z,1.90
2019-04-26T15:34:23.656Z,1.70
2019-04-26T15:36:50.498Z,1.70
2019-04-26T15:39:22.878Z,1.57
2019-04-26T15:41:54.342Z,1.50
2019-04-26T15:44:34.165Z,1.90
2019-04-26T15:47:07.387Z,1.70
2019-04-26T15:49:37.572Z,1.97
2019-04-26T15:52:06.229Z,1.73
2019-04-26T15:54:34.804Z,1.73
2019-04-26T15:57:06.278Z,1.90
2019-04-26T15:59:33.913Z,2.00
2019-04-26T16:02:02.691Z,2.10
2019-04-26T16:04:32.380Z,1.90
2019-04-26T16:07:02.453Z,1.87
2019-04-26T16:09:32.453Z,1.80
2019-04-26T16:12:03.381Z,1.63
2019-04-26T16:14:36.600Z,1.97
2019-04-26T16:17:05.340Z,2.07
2019-04-26T16:19:32.187Z,1.83
2019-04-26T16:22:02.849Z,1.93
2019-04-26T16:24:34.107Z,1.73
2019-04-26T16:27:02.760Z,1.93
2019-04-26T16:29:33.074Z,1.83
2019-04-26T16:32:03.280Z,1.40
2019-04-26T16:34:33.505Z,1.80
2019-04-26T16:37:03.074Z,2.17
2019-04-26T16:42:05.052Z,1.87
2019-04-26T16:44:33.492Z,1.90
2019-04-26T16:47:05.760Z,1.80
2019-04-26T16:49:35.142Z,1.60
2019-04-26T16:52:06.778Z,1.80
2019-04-26T16:54:34.259Z,1.60
2019-04-26T16:57:09.235Z,1.30
2019-04-26T16:59:33.375Z,1.60
2019-04-26T17:00:31.380Z,2.43
2019-04-26T17:02:02.803Z,1.80
2019-04-26T17:04:35.137Z,1.50
2019-04-26T17:07:04.378Z,1.60
2019-04-26T17:09:54.813Z,2.07
2019-04-26T17:12:02.512Z,2.00
2019-04-26T17:14:33.935Z,2.13
2019-04-26T17:17:03.153Z,1.90
2019-04-26T17:19:34.307Z,1.70
2019-04-26T17:22:15.661Z,1.70
2019-04-26T17:24:50.564Z,1.73
2019-04-26T17:27:20.696Z,1.57
2019-04-26T17:29:49.245Z,1.90
2019-04-26T17:32:17.835Z,1.73
2019-04-26T17:34:46.460Z,1.93
2019-04-26T17:37:17.450Z,2.00
2019-04-26T17:39:47.506Z,1.97
2019-04-26T17:42:15.533Z,1.97
2019-04-26T17:44:44.010Z,2.00
2019-04-26T17:47:12.610Z,2.00
2019-04-26T17:49:43.787Z,2.40
2019-04-26T17:52:11.743Z,2.40
2019-04-26T17:54:52.465Z,2.30
2019-04-26T17:57:14.525Z,2.70
2019-04-26T17:59:45.172Z,3.03
2019-04-26T18:02:25.571Z,3.40
2019-04-26T18:04:43.020Z,3.37
2019-04-26T18:07:34.742Z,3.43
2019-04-26T18:09:46.267Z,3.17
2019-04-26T18:12:12.057Z,3.60
2019-04-26T18:14:40.629Z,4.03
2019-04-26T18:17:10.881Z,4.20
2019-04-26T18:19:43.876Z,3.70
2019-04-26T18:22:14.655Z,3.70
2019-04-26T18:24:43.399Z,4.33
2019-04-26T18:27:11.978Z,4.33
2019-04-26T18:29:40.540Z,4.57
2019-04-26T18:32:09.321Z,4.00
2019-04-26T18:34:40.550Z,3.53
2019-04-26T18:37:08.143Z,3.27
2019-04-26T18:39:36.689Z,3.00
2019-04-26T18:42:05.975Z,3.80
2019-04-26T18:44:38.981Z,3.57
2019-04-26T18:47:09.804Z,4.00
2019-04-26T18:49:38.682Z,3.10
2019-04-26T18:52:08.881Z,3.03
2019-04-26T18:54:41.745Z,3.63
2019-04-26T18:57:15.652Z,3.97
2019-04-26T18:59:44.247Z,5.30
2019-04-26T19:02:11.524Z,3.97
2019-04-26T19:04:47.819Z,3.63
2019-04-26T19:07:12.176Z,3.60
2019-04-26T19:09:58.744Z,3.50
2019-04-26T19:12:18.403Z,4.10
2019-04-26T19:15:07.149Z,4.87
2019-04-26T19:17:37.969Z,4.77
2019-04-26T19:20:11.939Z,3.93
2019-04-26T19:22:42.153Z,4.07
2019-04-26T19:25:20.795Z,4.33
2019-04-26T19:27:48.178Z,4.70
2019-04-26T19:30:13.314Z,4.70
2019-04-26T19:32:41.826Z,5.10
2019-04-26T19:35:13.904Z,4.50
2019-04-26T19:37:40.739Z,4.50
2019-04-26T19:40:10.659Z,4.80
2019-04-26T19:42:39.883Z,5.30
2019-04-26T19:45:16.785Z,4.57
2019-04-26T19:47:48.517Z,5.30
2019-04-26T19:50:42.344Z,6.00
2019-04-26T19:53:10.407Z,6.90
2019-04-26T19:55:47.329Z,7.73
2019-04-26T19:58:22.794Z,7.37
2019-04-26T20:00:52.385Z,7.00
2019-04-26T20:03:21.194Z,7.60
2019-04-26T20:05:50.139Z,7.90
2019-04-26T20:08:19.118Z,8.40
2019-04-26T20:10:47.769Z,7.03
2019-04-26T20:13:16.810Z,9.07
2019-04-26T20:15:45.321Z,7.93
2019-04-26T20:18:13.836Z,8.73
2019-04-26T20:20:42.409Z,7.83
2019-04-26T20:23:12.368Z,8.43
2019-04-26T20:25:40.980Z,8.20
2019-04-26T20:28:09.548Z,8.03
2019-04-26T20:30:40.060Z,7.83
2019-04-26T20:33:08.605Z,8.07
2019-04-26T20:35:37.077Z,7.53
2019-04-26T20:38:05.868Z,7.77
2019-04-26T20:40:34.406Z,7.00
2019-04-26T20:43:06.784Z,6.97
2019-04-26T20:45:41.469Z,7.57
2019-04-26T20:48:03.406Z,7.90
2019-04-26T20:50:35.178Z,7.47
2019-04-26T20:53:02.443Z,7.97
2019-04-26T20:55:34.418Z,7.10
2019-04-26T20:58:05.556Z,7.70
2019-04-26T21:00:31.770Z,7.80
2019-04-26T21:03:02.255Z,8.50
2019-04-26T21:05:45.430Z,7.63
2019-04-26T21:08:03.452Z,7.90
2019-04-26T21:10:32.451Z,7.77
2019-04-26T21:13:01.905Z,7.30
2019-04-26T21:15:32.121Z,7.10
2019-04-26T21:18:02.765Z,6.80
2019-04-26T21:20:32.657Z,6.93
2019-04-26T21:23:02.249Z,6.13
2019-04-26T21:25:42.481Z,6.07
2019-04-26T21:28:27.718Z,6.67
2019-04-26T21:31:13.817Z,5.67
2019-04-26T21:33:56.388Z,5.70
2019-04-26T21:36:26.519Z,5.37
2019-04-26T21:39:13.800Z,4.73
2019-04-26T21:41:46.732Z,4.97
2019-04-26T21:44:15.810Z,4.40
2019-04-26T21:46:44.539Z,4.10
2019-04-26T21:49:19.888Z,4.03
2019-04-26T21:51:48.049Z,4.50
2019-04-26T21:54:14.420Z,4.20
2019-04-26T21:56:48.764Z,4.10
2019-04-26T21:59:14.136Z,4.17
2019-04-26T22:01:43.539Z,4.10
2019-04-26T22:04:13.322Z,4.13
2019-04-26T22:06:42.001Z,4.50
2019-04-26T22:09:34.976Z,4.33
2019-04-26T22:12:01.600Z,4.50
2019-04-26T22:14:31.781Z,4.53
2019-04-26T22:17:05.541Z,4.43
2019-04-26T22:19:35.804Z,4.57
2019-04-26T22:22:08.477Z,5.43
2019-04-26T22:24:38.689Z,5.20
2019-04-26T22:27:07.315Z,5.23
2019-04-26T22:29:36.273Z,5.07
2019-04-26T22:32:05.166Z,4.37
2019-04-26T22:34:37.346Z,4.40
2019-04-26T22:37:11.605Z,4.57
2019-04-26T22:39:39.855Z,4.13
2019-04-26T22:42:04.491Z,3.83
2019-04-26T22:44:37.415Z,4.07
2019-04-26T22:47:07.695Z,4.95
2019-04-26T22:49:41.635Z,4.27
2019-04-26T22:52:11.142Z,4.40
2019-04-26T22:54:37.719Z,4.00
2019-04-26T22:57:08.078Z,4.57
2019-04-26T22:59:38.106Z,5.55
2019-04-26T23:02:09.618Z,4.83
2019-04-26T23:04:38.280Z,4.10
2019-04-26T23:07:08.653Z,3.77
2019-04-26T23:09:37.492Z,3.80
2019-04-26T23:12:24.789Z,3.90
2019-04-26T23:15:00.591Z,3.87
2019-04-26T23:17:34.952Z,3.97
2019-04-26T23:20:18.394Z,4.90
2019-04-26T23:22:47.329Z,4.50
2019-04-26T23:25:16.231Z,4.30
2019-04-26T23:27:44.884Z,4.17
2019-04-26T23:30:15.470Z,4.50
2019-04-26T23:32:43.998Z,4.43
2019-04-26T23:35:13.734Z,4.60
2019-04-26T23:37:42.587Z,5.33
2019-04-26T23:40:11.225Z,4.67
2019-04-26T23:42:40.195Z,4.90
2019-04-26T23:45:10.766Z,4.83
2019-04-26T23:47:39.226Z,5.00
2019-04-26T23:50:07.837Z,5.87
2019-04-26T23:52:36.412Z,5.33
2019-04-26T23:55:08.783Z,5.70
2019-04-26T23:57:36.297Z,5.30
